Grasshopper Junction, Arizona
Current Conditions -  °F | °C
As of 8:51 PM on Monday 22 Dec 2014 (Local Time) from KIGM Reporting Station
Clear Clear  
Wind Chill: 12°   Ceiling: Unl
Heat Index: 12°   Visibility: 10mi
Dew Point:   Wind: 6mph
Humidity: 49%   Direction: 280°W
Pressure: 30.04"   Gusts: NA
Location:  35.2036°N, 114.02°W
Report Text: KIGM 230351Z AUTO 28005KT 10SM CLR 12/02 A3004 RMK AO2 SLP139 T01220017
Loading
Personal Weather Stations






























Interactive Weather Map New forecast layout! Learn more

10-Day Weather Forecast

Advertisements
Track Severe Weather on mobile